Language: 


Des rapports , des résumés tant et plus, au choix de chacun....


Données Historiques de Météogheer
Journalier Rapport pour Janvier 27, 2017 Unitée:  Les deux    Impériale   Métrique
Suivant Jour »
Journalier Hebdomadaire Mensuel Annuel Sur mesure
  Max: Min: Moyenne:
Température: 44.2 °F /  6.8 °C 26.4 °F /  -3.1 °C 36.3 °F /  2.4 °C
Point de rosée: 36 °F /  2.2 °C 22.5 °F /  -5.3 °C 29.8 °F /  -1.2 °C
Humidité: 86% 70% 77%
Vent: 10.1mph /  16.3km/h - 4.8mph /  7.7km/h
Rafales: 13.2mph /  21.2km/h - -
Vent- - SSE
Pression: 30.1 in /  1018.2 hPa 29.9 in /  1012.1 hPa -
Pluie: 0 in /  0.0 mm    
Historical Graphs
 
 
Données tabulaires pour Janvier 27, 2017
Heure Température Point de rosée Pression Vent Vent Rafales Humidité Pluie Taux (Horaire) Conditions
00:02 28.6 °F /  -1.9 °C 23.7 °F /  -4.6 °C 30in /  1016.8hPa SSE 4.3mph /  6.9km/h 5.8mph /  9.3km/h 82% 0in /  0.0mm
00:12 28.2 °F /  -2.1 °C 23.5 °F /  -4.7 °C 30.1in /  1018.2hPa SSE 4.3mph /  6.9km/h 5.6mph /  9.0km/h 82% 0in /  0.0mm
00:17 28 °F /  -2.2 °C 23.4 °F /  -4.8 °C 30.1in /  1018.2hPa SSE 3.4mph /  5.5km/h 4.3mph /  6.9km/h 82% 0in /  0.0mm
00:22 27.9 °F /  -2.3 °C 23.4 °F /  -4.8 °C 30in /  1016.8hPa SSE 4.7mph /  7.6km/h 5.6mph /  9.0km/h 83% 0in /  0.0mm
00:27 27.9 °F /  -2.3 °C 23.4 °F /  -4.8 °C 30in /  1016.8hPa SE 3.6mph /  5.8km/h 6.5mph /  10.5km/h 83% 0in /  0.0mm
00:32 27.9 °F /  -2.3 °C 23.4 °F /  -4.8 °C 30in /  1016.8hPa SE 6.3mph /  10.1km/h 6.5mph /  10.5km/h 83% 0in /  0.0mm
00:37 28 °F /  -2.2 °C 23.5 °F /  -4.7 °C 30in /  1016.8hPa SSE 3.4mph /  5.5km/h 7.8mph /  12.6km/h 83% 0in /  0.0mm
00:42 28 °F /  -2.2 °C 23.9 °F /  -4.5 °C 30in /  1016.8hPa SSE 4.7mph /  7.6km/h 8.7mph /  14.0km/h 84% 0in /  0.0mm
00:47 28 °F /  -2.2 °C 23.9 °F /  -4.5 °C 30in /  1016.8hPa SSE 5.6mph /  9.0km/h 8.7mph /  14.0km/h 84% 0in /  0.0mm
00:53 28 °F /  -2.2 °C 23.9 °F /  -4.5 °C 30in /  1016.1hPa SE 4mph /  6.4km/h 6.9mph /  11.1km/h 84% 0in /  0.0mm
00:58 28 °F /  -2.2 °C 23.9 °F /  -4.5 °C 30in /  1016.1hPa SSE 3.4mph /  5.5km/h 6.3mph /  10.1km/h 84% 0in /  0.0mm
01:01 28 °F /  -2.2 °C 23.9 °F /  -4.5 °C 30in /  1016.1hPa South 4.3mph /  6.9km/h 6.3mph /  10.1km/h 84% 0in /  0.0mm
01:03 27.9 °F /  -2.3 °C 23.7 °F /  -4.6 °C 30in /  1016.1hPa SSE 4.3mph /  6.9km/h 6.3mph /  10.1km/h 84% 0in /  0.0mm
01:08 27.9 °F /  -2.3 °C 23.4 °F /  -4.8 °C 30in /  1016.1hPa ESE 3.1mph /  5.0km/h 5.8mph /  9.3km/h 83% 0in /  0.0mm
01:13 27.9 °F /  -2.3 °C 23.4 °F /  -4.8 °C 30in /  1016.1hPa SE 2.9mph /  4.7km/h 4.3mph /  6.9km/h 83% 0in /  0.0mm
01:18 27.9 °F /  -2.3 °C 23.4 °F /  -4.8 °C 30in /  1016.1hPa SSE 2mph /  3.2km/h 4.3mph /  6.9km/h 83% 0in /  0.0mm
01:23 27.7 °F /  -2.4 °C 23.2 °F /  -4.9 °C 30in /  1015.1hPa ESE 2.9mph /  4.7km/h 4.3mph /  6.9km/h 83% 0in /  0.0mm
01:28 27.3 °F /  -2.6 °C 22.8 °F /  -5.1 °C 30in /  1015.1hPa ESE 2.7mph /  4.3km/h 4mph /  6.4km/h 83% 0in /  0.0mm
01:33 27.1 °F /  -2.7 °C 22.8 °F /  -5.1 °C 30in /  1015.1hPa SE 2.7mph /  4.3km/h 4mph /  6.4km/h 83% 0in /  0.0mm
01:38 27.1 °F /  -2.7 °C 22.8 °F /  -5.1 °C 29.9in /  1014.1hPa SE 3.4mph /  5.5km/h 4mph /  6.4km/h 83% 0in /  0.0mm
01:43 27.1 °F /  -2.7 °C 23 °F /  -5.0 °C 29.9in /  1014.1hPa SSE 2.7mph /  4.3km/h 6mph /  9.7km/h 84% 0in /  0.0mm
01:48 27.1 °F /  -2.7 °C 22.8 °F /  -5.1 °C 29.9in /  1014.1hPa ESE 2.7mph /  4.3km/h 6mph /  9.7km/h 84% 0in /  0.0mm
01:53 27.1 °F /  -2.7 °C 22.8 °F /  -5.1 °C 30in /  1015.1hPa Calm   3.4mph /  5.5km/h 84% 0in /  0.0mm
01:58 27 °F /  -2.8 °C 22.6 °F /  -5.2 °C 30in /  1015.1hPa SSE 2.7mph /  4.3km/h 4mph /  6.4km/h 84% 0in /  0.0mm
02:03 27 °F /  -2.8 °C 22.6 °F /  -5.2 °C 30in /  1015.1hPa ESE 2.9mph /  4.7km/h 4.7mph /  7.6km/h 84% 0in /  0.0mm
02:08 27 °F /  -2.8 °C 22.6 °F /  -5.2 °C 30in /  1015.1hPa ENE 2.7mph /  4.3km/h 4.7mph /  7.6km/h 84% 0in /  0.0mm
02:13 26.8 °F /  -2.9 °C 22.5 °F /  -5.3 °C 30in /  1015.1hPa SSE 2.5mph /  4.0km/h 3.6mph /  5.8km/h 84% 0in /  0.0mm
02:18 26.4 °F /  -3.1 °C 22.5 °F /  -5.3 °C 30in /  1015.1hPa SSE 2.7mph /  4.3km/h 6.5mph /  10.5km/h 84% 0in /  0.0mm
02:23 27 °F /  -2.8 °C 23 °F /  -5.0 °C 30in /  1015.1hPa SSE 6.5mph /  10.5km/h 8.1mph /  13.0km/h 85% 0in /  0.0mm
02:29 27.1 °F /  -2.7 °C 23.2 °F /  -4.9 °C 30in /  1015.1hPa SSE 7.4mph /  11.9km/h 10.1mph /  16.3km/h 85% 0in /  0.0mm
02:34 27.1 °F /  -2.7 °C 23.5 °F /  -4.7 °C 30in /  1015.1hPa SSE 2.7mph /  4.3km/h 10.1mph /  16.3km/h 86% 0in /  0.0mm
02:39 27.3 °F /  -2.6 °C 23.7 °F /  -4.6 °C 30in /  1015.1hPa SE 8.7mph /  14.0km/h 9.8mph /  15.8km/h 86% 0in /  0.0mm
02:44 27.9 °F /  -2.3 °C 24.1 °F /  -4.4 °C 30in /  1015.1hPa SSE 4mph /  6.4km/h 9.8mph /  15.8km/h 86% 0in /  0.0mm
02:49 27.9 °F /  -2.3 °C 23.7 °F /  -4.6 °C 30in /  1015.1hPa SE 4.3mph /  6.9km/h 8.7mph /  14.0km/h 85% 0in /  0.0mm
02:54 27.9 °F /  -2.3 °C 24.1 °F /  -4.4 °C 29.9in /  1014.1hPa SSE 1.6mph /  2.6km/h 10.1mph /  16.3km/h 85% 0in /  0.0mm
02:59 27.9 °F /  -2.3 °C 24.1 °F /  -4.4 °C 29.9in /  1014.1hPa South 6mph /  9.7km/h 10.1mph /  16.3km/h 85% 0in /  0.0mm
03:04 27.9 °F /  -2.3 °C 24.1 °F /  -4.4 °C 29.9in /  1014.1hPa SSE 7.6mph /  12.2km/h 10.5mph /  16.9km/h 85% 0in /  0.0mm
03:09 27.9 °F /  -2.3 °C 24.1 °F /  -4.4 °C 30in /  1015.1hPa SE 6.5mph /  10.5km/h 8.7mph /  14.0km/h 85% 0in /  0.0mm
03:14 28.2 °F /  -2.1 °C 24.4 °F /  -4.2 °C 30in /  1015.1hPa ESE 7.4mph /  11.9km/h 9.8mph /  15.8km/h 85% 0in /  0.0mm
03:19 28.6 °F /  -1.9 °C 24.4 °F /  -4.2 °C 30in /  1015.1hPa SE 6.5mph /  10.5km/h 10.3mph /  16.6km/h 85% 0in /  0.0mm
03:24 28.6 °F /  -1.9 °C 24.4 °F /  -4.2 °C 30in /  1015.1hPa South 5.8mph /  9.3km/h 10.3mph /  16.6km/h 84% 0in /  0.0mm
03:25 28.6 °F /  -1.9 °C 24.4 °F /  -4.2 °C 30in /  1015.1hPa South 7.2mph /  11.6km/h 10.3mph /  16.6km/h 84% 0in /  0.0mm
03:30 28.8 °F /  -1.8 °C 24.6 °F /  -4.1 °C 30in /  1015.1hPa South 5.4mph /  8.7km/h 10.5mph /  16.9km/h 84% 0in /  0.0mm
03:35 28.8 °F /  -1.8 °C 24.6 °F /  -4.1 °C 30in /  1015.1hPa SE 6.3mph /  10.1km/h 10.5mph /  16.9km/h 84% 0in /  0.0mm
03:40 28.8 °F /  -1.8 °C 24.3 °F /  -4.3 °C 30in /  1015.1hPa SSE 6.3mph /  10.1km/h 8.7mph /  14.0km/h 83% 0in /  0.0mm
03:45 28.9 °F /  -1.7 °C 24.4 °F /  -4.2 °C 30in /  1015.1hPa SE 5.4mph /  8.7km/h 6.7mph /  10.8km/h 83% 0in /  0.0mm
03:50 28.9 °F /  -1.7 °C 24.4 °F /  -4.2 °C 30in /  1015.1hPa SE 4.3mph /  6.9km/h 7.8mph /  12.6km/h 83% 0in /  0.0mm
03:55 28.9 °F /  -1.7 °C 24.3 °F /  -4.3 °C 29.9in /  1014.1hPa SE 5.4mph /  8.7km/h 7.8mph /  12.6km/h 82% 0in /  0.0mm
04:00 28.9 °F /  -1.7 °C 24.3 °F /  -4.3 °C 29.9in /  1014.1hPa SE 6.5mph /  10.5km/h 7.6mph /  12.2km/h 82% 0in /  0.0mm
04:05 28.9 °F /  -1.7 °C 24.3 °F /  -4.3 °C 29.9in /  1014.1hPa ESE 3.6mph /  5.8km/h 6.5mph /  10.5km/h 82% 0in /  0.0mm
04:10 28.9 °F /  -1.7 °C 24.3 °F /  -4.3 °C 29.9in /  1013.1hPa ESE 4.9mph /  7.9km/h 5.8mph /  9.3km/h 82% 0in /  0.0mm
04:16 28.9 °F /  -1.7 °C 24.3 °F /  -4.3 °C 29.9in /  1013.1hPa SSE 4.3mph /  6.9km/h 6.5mph /  10.5km/h 82% 0in /  0.0mm
04:21 28.9 °F /  -1.7 °C 24.3 °F /  -4.3 °C 29.9in /  1013.1hPa SSE 1.6mph /  2.6km/h 6.5mph /  10.5km/h 82% 0in /  0.0mm
04:25 28.9 °F /  -1.7 °C 24.3 °F /  -4.3 °C 29.9in /  1013.1hPa East 2.2mph /  3.5km/h 4.7mph /  7.6km/h 82% 0in /  0.0mm
04:30 28.9 °F /  -1.7 °C 24.3 °F /  -4.3 °C 29.9in /  1013.1hPa SE 3.6mph /  5.8km/h 4.7mph /  7.6km/h 82% 0in /  0.0mm
04:35 28.9 °F /  -1.7 °C 24.3 °F /  -4.3 °C 29.9in /  1013.1hPa ESE 3.6mph /  5.8km/h 5.4mph /  8.7km/h 82% 0in /  0.0mm
04:36 28.9 °F /  -1.7 °C 24.3 °F /  -4.3 °C 29.9in /  1013.1hPa ESE 3.6mph /  5.8km/h 5.4mph /  8.7km/h 82% 0in /  0.0mm
04:41 29.1 °F /  -1.6 °C 24.4 °F /  -4.2 °C 29.9in /  1013.1hPa SE 4.7mph /  7.6km/h 5.8mph /  9.3km/h 82% 0in /  0.0mm
04:46 29.5 °F /  -1.4 °C 24.8 °F /  -4.0 °C 29.9in /  1013.1hPa SE 3.1mph /  5.0km/h 5.8mph /  9.3km/h 83% 0in /  0.0mm
04:51 29.5 °F /  -1.4 °C 24.8 °F /  -4.0 °C 29.9in /  1013.1hPa East 2.9mph /  4.7km/h 6mph /  9.7km/h 83% 0in /  0.0mm
04:56 29.5 °F /  -1.4 °C 25 °F /  -3.9 °C 29.9in /  1013.1hPa East 3.6mph /  5.8km/h 6mph /  9.7km/h 83% 0in /  0.0mm
05:01 29.5 °F /  -1.4 °C 25 °F /  -3.9 °C 29.9in /  1013.1hPa East 2.5mph /  4.0km/h 4.7mph /  7.6km/h 83% 0in /  0.0mm
05:06 29.5 °F /  -1.4 °C 25 °F /  -3.9 °C 29.9in /  1013.1hPa ENE 2.5mph /  4.0km/h 3.8mph /  6.1km/h 83% 0in /  0.0mm
05:11 29.5 °F /  -1.4 °C 25 °F /  -3.9 °C 29.9in /  1013.1hPa East 4.9mph /  7.9km/h 5.4mph /  8.7km/h 83% 0in /  0.0mm
05:16 29.5 °F /  -1.4 °C 25 °F /  -3.9 °C 29.9in /  1013.1hPa NE 6mph /  9.7km/h 6.3mph /  10.1km/h 83% 0in /  0.0mm
05:21 29.5 °F /  -1.4 °C 24.8 °F /  -4.0 °C 29.9in /  1013.1hPa NE 4.7mph /  7.6km/h 6.9mph /  11.1km/h 83% 0in /  0.0mm
05:26 29.1 °F /  -1.6 °C 24.6 °F /  -4.1 °C 29.9in /  1013.1hPa ESE 2.5mph /  4.0km/h 6.9mph /  11.1km/h 83% 0in /  0.0mm
05:31 28.9 °F /  -1.7 °C 24.4 °F /  -4.2 °C 29.9in /  1013.1hPa East 4mph /  6.4km/h 5.8mph /  9.3km/h 83% 0in /  0.0mm
05:36 28.8 °F /  -1.8 °C 24.3 °F /  -4.3 °C 29.9in /  1013.1hPa East 3.6mph /  5.8km/h 5.8mph /  9.3km/h 83% 0in /  0.0mm
05:41 28.8 °F /  -1.8 °C 24.3 °F /  -4.3 °C 29.9in /  1012.1hPa ESE 5.4mph /  8.7km/h 6.5mph /  10.5km/h 83% 0in /  0.0mm
05:46 28.8 °F /  -1.8 °C 24.6 °F /  -4.1 °C 29.9in /  1012.1hPa East 5.8mph /  9.3km/h 6.9mph /  11.1km/h 84% 0in /  0.0mm
05:51 28.9 °F /  -1.7 °C 24.8 °F /  -4.0 °C 29.9in /  1012.1hPa East 4mph /  6.4km/h 7.8mph /  12.6km/h 84% 0in /  0.0mm
05:56 28.9 °F /  -1.7 °C 24.8 °F /  -4.0 °C 29.9in /  1014.1hPa East 6mph /  9.7km/h 8.1mph /  13.0km/h 84% 0in /  0.0mm
06:01 28.8 °F /  -1.8 °C 24.3 °F /  -4.3 °C 29.9in /  1014.1hPa ESE 7.6mph /  12.2km/h 9.6mph /  15.4km/h 83% 0in /  0.0mm
06:06 28.8 °F /  -1.8 °C 24.3 °F /  -4.3 °C 29.9in /  1014.1hPa SE 7.6mph /  12.2km/h 9.6mph /  15.4km/h 83% 0in /  0.0mm
06:11 28.8 °F /  -1.8 °C 24.3 °F /  -4.3 °C 29.9in /  1013.1hPa ESE 5.8mph /  9.3km/h 9.2mph /  14.8km/h 83% 0in /  0.0mm
06:16 28.6 °F /  -1.9 °C 24.1 °F /  -4.4 °C 29.9in /  1013.1hPa ESE 3.4mph /  5.5km/h 9.2mph /  14.8km/h 83% 0in /  0.0mm
06:21 28.6 °F /  -1.9 °C 23.7 °F /  -4.6 °C 29.9in /  1013.1hPa ESE 3.8mph /  6.1km/h 6.3mph /  10.1km/h 82% 0in /  0.0mm
06:26 28.6 °F /  -1.9 °C 24.1 °F /  -4.4 °C 29.9in /  1013.1hPa ESE 2.5mph /  4.0km/h 4.9mph /  7.9km/h 83% 0in /  0.0mm
06:31 28.6 °F /  -1.9 °C 24.1 °F /  -4.4 °C 29.9in /  1013.1hPa ESE 3.4mph /  5.5km/h 4.9mph /  7.9km/h 83% 0in /  0.0mm
06:36 28.6 °F /  -1.9 °C 24.1 °F /  -4.4 °C 29.9in /  1013.1hPa ESE 4.7mph /  7.6km/h 4.9mph /  7.9km/h 83% 0in /  0.0mm
06:47 28.8 °F /  -1.8 °C 24.3 °F /  -4.3 °C 29.9in /  1012.1hPa East 4mph /  6.4km/h 4.5mph /  7.2km/h 83% 0in /  0.0mm
06:52 28.8 °F /  -1.8 °C 24.3 °F /  -4.3 °C 29.9in /  1012.1hPa ESE 4.3mph /  6.9km/h 4.7mph /  7.6km/h 83% 0in /  0.0mm
06:57 28.9 °F /  -1.7 °C 24.8 °F /  -4.0 °C 29.9in /  1012.1hPa East 3.6mph /  5.8km/h 5.8mph /  9.3km/h 84% 0in /  0.0mm
07:02 28.9 °F /  -1.7 °C 24.8 °F /  -4.0 °C 29.9in /  1012.1hPa SSE 3.8mph /  6.1km/h 5.8mph /  9.3km/h 84% 0in /  0.0mm
07:07 29.1 °F /  -1.6 °C 25 °F /  -3.9 °C 29.9in /  1012.1hPa SSE 4.3mph /  6.9km/h 5.4mph /  8.7km/h 84% 0in /  0.0mm
07:12 29.5 °F /  -1.4 °C 24.8 °F /  -4.0 °C 29.9in /  1013.1hPa ESE 2mph /  3.2km/h 5.4mph /  8.7km/h 83% 0in /  0.0mm
07:17 29.5 °F /  -1.4 °C 25 °F /  -3.9 °C 29.9in /  1013.1hPa SSE 6.5mph /  10.5km/h 6.5mph /  10.5km/h 83% 0in /  0.0mm
07:22 29.5 °F /  -1.4 °C 25 °F /  -3.9 °C 29.9in /  1013.1hPa SE 3.4mph /  5.5km/h 6.5mph /  10.5km/h 83% 0in /  0.0mm
07:27 29.7 °F /  -1.3 °C 25.2 °F /  -3.8 °C 29.9in /  1012.1hPa SSE 3.4mph /  5.5km/h 6.3mph /  10.1km/h 83% 0in /  0.0mm
07:32 29.7 °F /  -1.3 °C 25.2 °F /  -3.8 °C 29.9in /  1012.1hPa SSE 3.1mph /  5.0km/h 4.7mph /  7.6km/h 83% 0in /  0.0mm
07:37 29.7 °F /  -1.3 °C 25 °F /  -3.9 °C 29.9in /  1012.1hPa SE 2.9mph /  4.7km/h 6.5mph /  10.5km/h 82% 0in /  0.0mm
07:42 29.7 °F /  -1.3 °C 25 °F /  -3.9 °C 29.9in /  1012.1hPa SSE 3.8mph /  6.1km/h 6.5mph /  10.5km/h 82% 0in /  0.0mm
07:47 29.7 °F /  -1.3 °C 25 °F /  -3.9 °C 29.9in /  1012.1hPa SSE 6.5mph /  10.5km/h 6.5mph /  10.5km/h 82% 0in /  0.0mm
07:52 29.7 °F /  -1.3 °C 25 °F /  -3.9 °C 29.9in /  1012.1hPa SSE 2.9mph /  4.7km/h 7.6mph /  12.2km/h 82% 0in /  0.0mm
07:57 29.5 °F /  -1.4 °C 24.4 °F /  -4.2 °C 29.9in /  1013.1hPa SE 3.4mph /  5.5km/h 7.6mph /  12.2km/h 81% 0in /  0.0mm
08:02 29.5 °F /  -1.4 °C 24.3 °F /  -4.3 °C 29.9in /  1013.1hPa ENE 3.4mph /  5.5km/h 5.6mph /  9.0km/h 81% 0in /  0.0mm
08:07 29.5 °F /  -1.4 °C 24.3 °F /  -4.3 °C 29.9in /  1013.1hPa SSE 2.5mph /  4.0km/h 4.9mph /  7.9km/h 81% 0in /  0.0mm
08:12 29.1 °F /  -1.6 °C 24.1 °F /  -4.4 °C 29.9in /  1013.1hPa South 3.1mph /  5.0km/h 4.9mph /  7.9km/h 81% 0in /  0.0mm
08:17 28.9 °F /  -1.7 °C 23.9 °F /  -4.5 °C 29.9in /  1013.1hPa SE 4.9mph /  7.9km/h 4.9mph /  7.9km/h 81% 0in /  0.0mm
08:22 28.8 °F /  -1.8 °C 23.7 °F /  -4.6 °C 29.9in /  1013.1hPa South 2.5mph /  4.0km/h 4.9mph /  7.9km/h 81% 0in /  0.0mm
08:27 28.8 °F /  -1.8 °C 23.7 °F /  -4.6 °C 29.9in /  1013.1hPa Calm   4.3mph /  6.9km/h 81% 0in /  0.0mm
08:32 28.6 °F /  -1.9 °C 23.5 °F /  -4.7 °C 29.9in /  1013.1hPa Calm   3.1mph /  5.0km/h 81% 0in /  0.0mm
08:37 28.6 °F /  -1.9 °C 23.5 °F /  -4.7 °C 29.9in /  1013.1hPa ESE 3.6mph /  5.8km/h 4.3mph /  6.9km/h 81% 0in /  0.0mm
08:42 28.6 °F /  -1.9 °C 23.5 °F /  -4.7 °C 29.9in /  1013.1hPa SE 1.3mph /  2.1km/h 4.7mph /  7.6km/h 81% 0in /  0.0mm
08:47 28.6 °F /  -1.9 °C 23.7 °F /  -4.6 °C 29.9in /  1013.1hPa SSE 2.9mph /  4.7km/h 4.7mph /  7.6km/h 82% 0in /  0.0mm
08:52 28.2 °F /  -2.1 °C 23.5 °F /  -4.7 °C 29.9in /  1013.1hPa SSE 0.9mph /  1.4km/h 3.4mph /  5.5km/h 82% 0in /  0.0mm
08:57 28.2 °F /  -2.1 °C 23.5 °F /  -4.7 °C 29.9in /  1013.1hPa Calm   3.4mph /  5.5km/h 82% 0in /  0.0mm
09:02 28.6 °F /  -1.9 °C 24.1 °F /  -4.4 °C 29.9in /  1013.1hPa Calm   3.4mph /  5.5km/h 83% 0in /  0.0mm
09:07 28.6 °F /  -1.9 °C 24.1 °F /  -4.4 °C 29.9in /  1013.1hPa ESE 1.6mph /  2.6km/h 2.9mph /  4.7km/h 83% 0in /  0.0mm
09:08 28.6 °F /  -1.9 °C 24.1 °F /  -4.4 °C 29.9in /  1013.1hPa SSE 3.1mph /  5.0km/h 3.1mph /  5.0km/h 83% 0in /  0.0mm
09:13 28.8 °F /  -1.8 °C 24.3 °F /  -4.3 °C 29.9in /  1013.1hPa SSE 3.6mph /  5.8km/h 4.3mph /  6.9km/h 83% 0in /  0.0mm
09:18 28.9 °F /  -1.7 °C 24.4 °F /  -4.2 °C 29.9in /  1013.1hPa South 2mph /  3.2km/h 4.3mph /  6.9km/h 83% 0in /  0.0mm
09:23 29.5 °F /  -1.4 °C 25.2 °F /  -3.8 °C 29.9in /  1013.1hPa SSE 2.7mph /  4.3km/h 4.3mph /  6.9km/h 84% 0in /  0.0mm
09:28 29.5 °F /  -1.4 °C 25.3 °F /  -3.7 °C 29.9in /  1013.1hPa SSE 2mph /  3.2km/h 4.9mph /  7.9km/h 84% 0in /  0.0mm
09:33 29.8 °F /  -1.2 °C 25.5 °F /  -3.6 °C 29.9in /  1013.1hPa South 1.3mph /  2.1km/h 4.9mph /  7.9km/h 84% 0in /  0.0mm
09:38 30.2 °F /  -1.0 °C 26.1 °F /  -3.3 °C 29.9in /  1013.1hPa Calm   3.4mph /  5.5km/h 84% 0in /  0.0mm
09:43 30.4 °F /  -0.9 °C 26.2 °F /  -3.2 °C 29.9in /  1013.1hPa SSE 2.7mph /  4.3km/h 3.1mph /  5.0km/h 84% 0in /  0.0mm
09:48 30.9 °F /  -0.6 °C 26.8 °F /  -2.9 °C 29.9in /  1013.1hPa Calm   3.1mph /  5.0km/h 84% 0in /  0.0mm
09:53 31.5 °F /  -0.3 °C 27.1 °F /  -2.7 °C 29.9in /  1014.1hPa SSE 2.7mph /  4.3km/h 3.4mph /  5.5km/h 84% 0in /  0.0mm
09:58 32 °F /  0.0 °C 27.7 °F /  -2.4 °C 29.9in /  1014.1hPa SSE 1.6mph /  2.6km/h 3.4mph /  5.5km/h 84% 0in /  0.0mm
10:02 32.4 °F /  0.2 °C 28 °F /  -2.2 °C 29.9in /  1014.1hPa South 2.5mph /  4.0km/h 3.4mph /  5.5km/h 84% 0in /  0.0mm
10:07 32.7 °F /  0.4 °C 28.4 °F /  -2.0 °C 29.9in /  1013.1hPa Calm   5.4mph /  8.7km/h 84% 0in /  0.0mm
10:12 33.1 °F /  0.6 °C 28.8 °F /  -1.8 °C 29.9in /  1013.1hPa SSE 3.1mph /  5.0km/h 5.4mph /  8.7km/h 84% 0in /  0.0mm
10:17 33.4 °F /  0.8 °C 29.1 °F /  -1.6 °C 29.9in /  1013.1hPa South 2.5mph /  4.0km/h 5.6mph /  9.0km/h 84% 0in /  0.0mm
10:22 33.6 °F /  0.9 °C 28.9 °F /  -1.7 °C 29.9in /  1014.1hPa South 5.4mph /  8.7km/h 6.3mph /  10.1km/h 83% 0in /  0.0mm
10:27 33.8 °F /  1.0 °C 28.9 °F /  -1.7 °C 29.9in /  1014.1hPa South 3.4mph /  5.5km/h 6.7mph /  10.8km/h 82% 0in /  0.0mm
10:32 34.2 °F /  1.2 °C 29.1 °F /  -1.6 °C 29.9in /  1014.1hPa SSW 5.8mph /  9.3km/h 8.5mph /  13.7km/h 82% 0in /  0.0mm
10:37 34.5 °F /  1.4 °C 29.7 °F /  -1.3 °C 29.9in /  1014.1hPa South 3.8mph /  6.1km/h 8.5mph /  13.7km/h 82% 0in /  0.0mm
10:42 35.2 °F /  1.8 °C 30.2 °F /  -1.0 °C 29.9in /  1014.1hPa South 6.9mph /  11.1km/h 8.5mph /  13.7km/h 82% 0in /  0.0mm
10:47 35.4 °F /  1.9 °C 30.4 °F /  -0.9 °C 29.9in /  1014.1hPa South 4.3mph /  6.9km/h 6.9mph /  11.1km/h 81% 0in /  0.0mm
10:52 35.8 °F /  2.1 °C 30 °F /  -1.1 °C 29.9in /  1014.1hPa South 3.8mph /  6.1km/h 6.3mph /  10.1km/h 80% 0in /  0.0mm
10:57 36.1 °F /  2.3 °C 30.2 °F /  -1.0 °C 29.9in /  1014.1hPa South 6mph /  9.7km/h 6.3mph /  10.1km/h 79% 0in /  0.0mm
11:02 36.3 °F /  2.4 °C 30.6 °F /  -0.8 °C 29.9in /  1014.1hPa South 4.3mph /  6.9km/h 7.8mph /  12.6km/h 79% 0in /  0.0mm
11:07 36.3 °F /  2.4 °C 30.2 °F /  -1.0 °C 29.9in /  1014.1hPa South 7.4mph /  11.9km/h 11.2mph /  18.0km/h 78% 0in /  0.0mm
11:08 36.3 °F /  2.4 °C 30.2 °F /  -1.0 °C 29.9in /  1014.1hPa SSE 7.4mph /  11.9km/h 11.2mph /  18.0km/h 78% 0in /  0.0mm
11:13 36.1 °F /  2.3 °C 29.7 °F /  -1.3 °C 29.9in /  1014.1hPa South 7.6mph /  12.2km/h 11.2mph /  18.0km/h 77% 0in /  0.0mm
11:18 36.1 °F /  2.3 °C 29.5 °F /  -1.4 °C 29.9in /  1014.1hPa SSE 3.8mph /  6.1km/h 10.1mph /  16.3km/h 76% 0in /  0.0mm
11:23 36.1 °F /  2.3 °C 29.5 °F /  -1.4 °C 29.9in /  1013.1hPa SSW 2.9mph /  4.7km/h 10.5mph /  16.9km/h 77% 0in /  0.0mm
11:28 36.1 °F /  2.3 °C 29.5 °F /  -1.4 °C 29.9in /  1013.1hPa South 5.8mph /  9.3km/h 10.5mph /  16.9km/h 76% 0in /  0.0mm
11:33 36.1 °F /  2.3 °C 29.7 °F /  -1.3 °C 29.9in /  1013.1hPa SSE 4.3mph /  6.9km/h 8.5mph /  13.7km/h 77% 0in /  0.0mm
11:38 36.1 °F /  2.3 °C 29.5 °F /  -1.4 °C 29.9in /  1014.1hPa South 3.8mph /  6.1km/h 7.8mph /  12.6km/h 76% 0in /  0.0mm
11:43 36.1 °F /  2.3 °C 29.5 °F /  -1.4 °C 29.9in /  1014.1hPa SSE 3.8mph /  6.1km/h 7.8mph /  12.6km/h 76% 0in /  0.0mm
11:48 36.3 °F /  2.4 °C 29.8 °F /  -1.2 °C 29.9in /  1014.1hPa South 8.5mph /  13.7km/h 9.2mph /  14.8km/h 77% 0in /  0.0mm
11:53 36.7 °F /  2.6 °C 30 °F /  -1.1 °C 29.9in /  1013.1hPa SE 3.1mph /  5.0km/h 9.2mph /  14.8km/h 77% 0in /  0.0mm
11:58 36.9 °F /  2.7 °C 30.4 °F /  -0.9 °C 29.9in /  1013.1hPa South 5.4mph /  8.7km/h 9.6mph /  15.4km/h 77% 0in /  0.0mm
12:03 37.2 °F /  2.9 °C 30.7 °F /  -0.7 °C 29.9in /  1013.1hPa South 3.8mph /  6.1km/h 9.6mph /  15.4km/h 77% 0in /  0.0mm
12:08 37.8 °F /  3.2 °C 31.3 °F /  -0.4 °C 29.9in /  1013.1hPa SSE 5.6mph /  9.0km/h 8.5mph /  13.7km/h 77% 0in /  0.0mm
12:13 37.9 °F /  3.3 °C 31.5 °F /  -0.3 °C 29.9in /  1013.1hPa South 4.3mph /  6.9km/h 12.3mph /  19.8km/h 77% 0in /  0.0mm
12:18 38.5 °F /  3.6 °C 31.8 °F /  -0.1 °C 29.9in /  1013.1hPa SE 3.8mph /  6.1km/h 12.3mph /  19.8km/h 77% 0in /  0.0mm
12:23 38.5 °F /  3.6 °C 31.5 °F /  -0.3 °C 29.9in /  1013.1hPa SSW 5.4mph /  8.7km/h 10.5mph /  16.9km/h 76% 0in /  0.0mm
12:28 38.5 °F /  3.6 °C 31.5 °F /  -0.3 °C 29.9in /  1013.1hPa SSW 6mph /  9.7km/h 9.2mph /  14.8km/h 76% 0in /  0.0mm
12:33 38.5 °F /  3.6 °C 31.6 °F /  -0.2 °C 29.9in /  1013.1hPa South 4.3mph /  6.9km/h 10.1mph /  16.3km/h 76% 0in /  0.0mm
12:38 38.7 °F /  3.7 °C 31.8 °F /  -0.1 °C 29.9in /  1013.1hPa SSE 3.8mph /  6.1km/h 10.1mph /  16.3km/h 76% 0in /  0.0mm
12:43 39 °F /  3.9 °C 32.2 °F /  0.1 °C 29.9in /  1013.1hPa SSE 4.3mph /  6.9km/h 8.7mph /  14.0km/h 76% 0in /  0.0mm
12:48 39.6 °F /  4.2 °C 32.5 °F /  0.3 °C 29.9in /  1013.1hPa South 7.4mph /  11.9km/h 8.7mph /  14.0km/h 76% 0in /  0.0mm
12:53 40.3 °F /  4.6 °C 33.3 °F /  0.7 °C 29.9in /  1013.1hPa South 6mph /  9.7km/h 10.7mph /  17.2km/h 76% 0in /  0.0mm
12:58 40.6 °F /  4.8 °C 33.6 °F /  0.9 °C 29.9in /  1013.1hPa South 5.8mph /  9.3km/h 10.7mph /  17.2km/h 76% 0in /  0.0mm
13:03 40.8 °F /  4.9 °C 33.4 °F /  0.8 °C 29.9in /  1013.1hPa South 3.4mph /  5.5km/h 10.1mph /  16.3km/h 75% 0in /  0.0mm
13:08 41 °F /  5.0 °C 33.3 °F /  0.7 °C 29.9in /  1012.1hPa South 4.3mph /  6.9km/h 10.1mph /  16.3km/h 74% 0in /  0.0mm
13:13 40.8 °F /  4.9 °C 33.3 °F /  0.7 °C 29.9in /  1012.1hPa SSW 3.4mph /  5.5km/h 9.8mph /  15.8km/h 74% 0in /  0.0mm
13:18 40.8 °F /  4.9 °C 33.3 °F /  0.7 °C 29.9in /  1012.1hPa SSE 3.1mph /  5.0km/h 8.5mph /  13.7km/h 74% 0in /  0.0mm
13:23 40.8 °F /  4.9 °C 33.3 °F /  0.7 °C 29.9in /  1012.1hPa SSE 3.8mph /  6.1km/h 7.8mph /  12.6km/h 74% 0in /  0.0mm
13:28 41 °F /  5.0 °C 33.3 °F /  0.7 °C 29.9in /  1012.1hPa SSE 3.8mph /  6.1km/h 9.6mph /  15.4km/h 74% 0in /  0.0mm
13:33 41 °F /  5.0 °C 33.1 °F /  0.6 °C 29.9in /  1012.1hPa SSE 7.8mph /  12.6km/h 9.6mph /  15.4km/h 73% 0in /  0.0mm
13:38 41.2 °F /  5.1 °C 33.3 °F /  0.7 °C 29.9in /  1013.1hPa WSW 8.5mph /  13.7km/h 10.1mph /  16.3km/h 73% 0in /  0.0mm
13:43 41.5 °F /  5.3 °C 33.4 °F /  0.8 °C 29.9in /  1013.1hPa South 3.1mph /  5.0km/h 11mph /  17.7km/h 73% 0in /  0.0mm
13:48 41.9 °F /  5.5 °C 34 °F /  1.1 °C 29.9in /  1013.1hPa South 4.9mph /  7.9km/h 11mph /  17.7km/h 73% 0in /  0.0mm
13:53 42.1 °F /  5.6 °C 34.3 °F /  1.3 °C 29.9in /  1013.1hPa South 7.6mph /  12.2km/h 7.6mph /  12.2km/h 74% 0in /  0.0mm
13:58 42.3 °F /  5.7 °C 34.2 °F /  1.2 °C 29.9in /  1013.1hPa SSE 5.8mph /  9.3km/h 8.5mph /  13.7km/h 73% 0in /  0.0mm
14:01 42.3 °F /  5.7 °C 34.2 °F /  1.2 °C 29.9in /  1013.1hPa South 5.6mph /  9.0km/h 8.7mph /  14.0km/h 73% 0in /  0.0mm
14:06 42.6 °F /  5.9 °C 34.5 °F /  1.4 °C 29.9in /  1013.1hPa South 3.6mph /  5.8km/h 8.7mph /  14.0km/h 73% 0in /  0.0mm
14:11 42.8 °F /  6.0 °C 34.7 °F /  1.5 °C 29.9in /  1013.1hPa South 5.4mph /  8.7km/h 8.1mph /  13.0km/h 73% 0in /  0.0mm
14:16 43.3 °F /  6.3 °C 35.2 °F /  1.8 °C 29.9in /  1013.1hPa SSE 7.6mph /  12.2km/h 8.1mph /  13.0km/h 73% 0in /  0.0mm
14:21 43.9 °F /  6.6 °C 35.4 °F /  1.9 °C 29.9in /  1013.1hPa South 4.3mph /  6.9km/h 12.3mph /  19.8km/h 72% 0in /  0.0mm
14:26 44.2 °F /  6.8 °C 36 °F /  2.2 °C 29.9in /  1013.1hPa South 6mph /  9.7km/h 12.3mph /  19.8km/h 72% 0in /  0.0mm
14:31 44.2 °F /  6.8 °C 35.4 °F /  1.9 °C 29.9in /  1013.1hPa SSW 4.3mph /  6.9km/h 11mph /  17.7km/h 71% 0in /  0.0mm
14:36 44.2 °F /  6.8 °C 35.4 °F /  1.9 °C 29.9in /  1013.1hPa SSE 10.1mph /  16.3km/h 11mph /  17.7km/h 71% 0in /  0.0mm
14:41 44.1 °F /  6.7 °C 35.2 °F /  1.8 °C 29.9in /  1013.1hPa South 9.4mph /  15.1km/h 10.1mph /  16.3km/h 71% 0in /  0.0mm
14:46 44.1 °F /  6.7 °C 35.2 °F /  1.8 °C 29.9in /  1013.1hPa South 6.3mph /  10.1km/h 10.3mph /  16.6km/h 71% 0in /  0.0mm
14:51 44.1 °F /  6.7 °C 34.9 °F /  1.6 °C 29.9in /  1013.1hPa South 6.5mph /  10.5km/h 10.3mph /  16.6km/h 70% 0in /  0.0mm
14:56 44.1 °F /  6.7 °C 34.9 °F /  1.6 °C 29.9in /  1013.1hPa SSE 5.4mph /  8.7km/h 13.2mph /  21.2km/h 70% 0in /  0.0mm
15:01 43.9 °F /  6.6 °C 35.1 °F /  1.7 °C 29.9in /  1013.1hPa South 2.9mph /  4.7km/h 13.2mph /  21.2km/h 71% 0in /  0.0mm
15:06 43.9 °F /  6.6 °C 35.1 °F /  1.7 °C 29.9in /  1013.1hPa SSE 5.4mph /  8.7km/h 10.3mph /  16.6km/h 71% 0in /  0.0mm
15:11 43.5 °F /  6.4 °C 34.9 °F /  1.6 °C 29.9in /  1013.1hPa SSE 3.4mph /  5.5km/h 10.3mph /  16.6km/h 71% 0in /  0.0mm
15:16 43.5 °F /  6.4 °C 34.9 °F /  1.6 °C 29.9in /  1013.1hPa South 6mph /  9.7km/h 8.1mph /  13.0km/h 71% 0in /  0.0mm
15:21 43.5 °F /  6.4 °C 34.7 °F /  1.5 °C 29.9in /  1013.1hPa SSE 6.5mph /  10.5km/h 8.1mph /  13.0km/h 71% 0in /  0.0mm
15:26 43.5 °F /  6.4 °C 34.7 °F /  1.5 °C 29.9in /  1013.1hPa SSE 4.3mph /  6.9km/h 10.1mph /  16.3km/h 71% 0in /  0.0mm
15:31 43.3 °F /  6.3 °C 34.5 °F /  1.4 °C 29.9in /  1013.1hPa SSE 6mph /  9.7km/h 10.1mph /  16.3km/h 71% 0in /  0.0mm
15:36 43.3 °F /  6.3 °C 34.5 °F /  1.4 °C 29.9in /  1013.1hPa South 5.8mph /  9.3km/h 8.5mph /  13.7km/h 71% 0in /  0.0mm
15:41 43.3 °F /  6.3 °C 34.9 °F /  1.6 °C 29.9in /  1013.1hPa SSE 6.5mph /  10.5km/h 8.5mph /  13.7km/h 72% 0in /  0.0mm
15:46 43.3 °F /  6.3 °C 34.9 °F /  1.6 °C 29.9in /  1013.1hPa SSE 8.1mph /  13.0km/h 9.6mph /  15.4km/h 72% 0in /  0.0mm
15:51 43.2 °F /  6.2 °C 34.7 °F /  1.5 °C 29.9in /  1013.1hPa SSE 7.8mph /  12.6km/h 10.3mph /  16.6km/h 72% 0in /  0.0mm
15:56 43.2 °F /  6.2 °C 34.7 °F /  1.5 °C 29.9in /  1013.1hPa SSE 7.6mph /  12.2km/h 10.3mph /  16.6km/h 72% 0in /  0.0mm
16:01 43.2 °F /  6.2 °C 35.1 °F /  1.7 °C 29.9in /  1013.1hPa SSE 7.4mph /  11.9km/h 9.4mph /  15.1km/h 73% 0in /  0.0mm
16:06 43.2 °F /  6.2 °C 35.1 °F /  1.7 °C 29.9in /  1013.1hPa SSE 8.9mph /  14.3km/h 8.9mph /  14.3km/h 73% 0in /  0.0mm
16:11 43.3 °F /  6.3 °C 35.2 °F /  1.8 °C 29.9in /  1013.1hPa SSE 6mph /  9.7km/h 8.9mph /  14.3km/h 73% 0in /  0.0mm
16:16 43.2 °F /  6.2 °C 35.1 °F /  1.7 °C 29.9in /  1013.1hPa South 4.9mph /  7.9km/h 10.1mph /  16.3km/h 73% 0in /  0.0mm
16:21 43.2 °F /  6.2 °C 35.1 °F /  1.7 °C 29.9in /  1013.1hPa South 7.4mph /  11.9km/h 10.1mph /  16.3km/h 73% 0in /  0.0mm
16:26 43.2 °F /  6.2 °C 35.1 °F /  1.7 °C 29.9in /  1013.1hPa SSE 4.3mph /  6.9km/h 10.5mph /  16.9km/h 73% 0in /  0.0mm
16:31 43.3 °F /  6.3 °C 35.2 °F /  1.8 °C 29.9in /  1013.1hPa SSE 6.9mph /  11.1km/h 12.1mph /  19.5km/h 73% 0in /  0.0mm
16:36 43.3 °F /  6.3 °C 35.2 °F /  1.8 °C 29.9in /  1013.1hPa SSE 9.4mph /  15.1km/h 12.1mph /  19.5km/h 73% 0in /  0.0mm
16:41 43.3 °F /  6.3 °C 35.2 °F /  1.8 °C 29.9in /  1013.1hPa SSE 6.3mph /  10.1km/h 13mph /  20.9km/h 73% 0in /  0.0mm
16:46 43.3 °F /  6.3 °C 35.2 °F /  1.8 °C 29.9in /  1013.1hPa SSE 5.8mph /  9.3km/h 13mph /  20.9km/h 73% 0in /  0.0mm
16:51 43.3 °F /  6.3 °C 35.2 °F /  1.8 °C 29.9in /  1013.1hPa SSE 6.5mph /  10.5km/h 10.7mph /  17.2km/h 73% 0in /  0.0mm
16:56 43.3 °F /  6.3 °C 35.2 °F /  1.8 °C 29.9in /  1013.1hPa SSE 6mph /  9.7km/h 9.8mph /  15.8km/h 73% 0in /  0.0mm
17:01 43.2 °F /  6.2 °C 35.1 °F /  1.7 °C 29.9in /  1013.1hPa SE 5.4mph /  8.7km/h 9.6mph /  15.4km/h 73% 0in /  0.0mm
17:06 43 °F /  6.1 °C 34.9 °F /  1.6 °C 29.9in /  1013.1hPa SSE 6.5mph /  10.5km/h 7.8mph /  12.6km/h 73% 0in /  0.0mm
17:11 42.8 °F /  6.0 °C 34.7 °F /  1.5 °C 29.9in /  1013.1hPa South 6mph /  9.7km/h 9.2mph /  14.8km/h 73% 0in /  0.0mm
17:16 42.8 °F /  6.0 °C 34.7 °F /  1.5 °C 29.9in /  1013.1hPa ESE 5.4mph /  8.7km/h 9.2mph /  14.8km/h 73% 0in /  0.0mm
17:21 42.8 °F /  6.0 °C 35.1 °F /  1.7 °C 29.9in /  1013.1hPa SSE 6.3mph /  10.1km/h 7.6mph /  12.2km/h 74% 0in /  0.0mm
17:26 42.8 °F /  6.0 °C 35.1 °F /  1.7 °C 29.9in /  1013.1hPa SSE 4.7mph /  7.6km/h 7.4mph /  11.9km/h 74% 0in /  0.0mm
17:31 42.8 °F /  6.0 °C 35.1 °F /  1.7 °C 29.9in /  1013.1hPa SSE 5.4mph /  8.7km/h 8.1mph /  13.0km/h 74% 0in /  0.0mm
17:36 42.8 °F /  6.0 °C 35.1 °F /  1.7 °C 29.9in /  1013.1hPa SSE 5.8mph /  9.3km/h 8.1mph /  13.0km/h 74% 0in /  0.0mm
17:41 42.8 °F /  6.0 °C 35.1 °F /  1.7 °C 29.9in /  1013.1hPa SSE 5.4mph /  8.7km/h 7.6mph /  12.2km/h 74% 0in /  0.0mm
17:46 42.8 °F /  6.0 °C 35.1 °F /  1.7 °C 29.9in /  1013.1hPa SSE 5.4mph /  8.7km/h 7.6mph /  12.2km/h 74% 0in /  0.0mm
17:56 42.8 °F /  6.0 °C 35.1 °F /  1.7 °C 29.9in /  1013.1hPa SSE 6mph /  9.7km/h 8.1mph /  13.0km/h 74% 0in /  0.0mm
18:01 42.8 °F /  6.0 °C 35.4 °F /  1.9 °C 29.9in /  1013.1hPa SSE 5.6mph /  9.0km/h 7.4mph /  11.9km/h 75% 0in /  0.0mm
18:02 42.8 °F /  6.0 °C 35.4 °F /  1.9 °C 29.9in /  1013.1hPa SSE 2.7mph /  4.3km/h 7.4mph /  11.9km/h 75% 0in /  0.0mm
18:07 43 °F /  6.1 °C 35.6 °F /  2.0 °C 29.9in /  1014.1hPa SE 4.3mph /  6.9km/h 7.8mph /  12.6km/h 75% 0in /  0.0mm
18:12 43 °F /  6.1 °C 35.2 °F /  1.8 °C 29.9in /  1014.1hPa South 3.8mph /  6.1km/h 7.8mph /  12.6km/h 74% 0in /  0.0mm
18:17 43.2 °F /  6.2 °C 35.4 °F /  1.9 °C 29.9in /  1014.1hPa SE 4.9mph /  7.9km/h 6.5mph /  10.5km/h 74% 0in /  0.0mm
18:22 43.3 °F /  6.3 °C 35.6 °F /  2.0 °C 29.9in /  1013.1hPa SSE 7.6mph /  12.2km/h 7.6mph /  12.2km/h 74% 0in /  0.0mm
18:27 43.3 °F /  6.3 °C 35.6 °F /  2.0 °C 29.9in /  1013.1hPa SSE 4.3mph /  6.9km/h 10.7mph /  17.2km/h 74% 0in /  0.0mm
18:32 43.5 °F /  6.4 °C 35.8 °F /  2.1 °C 29.9in /  1013.1hPa SSE 4.3mph /  6.9km/h 10.7mph /  17.2km/h 74% 0in /  0.0mm
18:37 43.5 °F /  6.4 °C 35.8 °F /  2.1 °C 29.9in /  1013.1hPa SSE 6.5mph /  10.5km/h 8.7mph /  14.0km/h 74% 0in /  0.0mm
18:42 43.5 °F /  6.4 °C 36 °F /  2.2 °C 29.9in /  1013.1hPa SSE 6mph /  9.7km/h 8.7mph /  14.0km/h 74% 0in /  0.0mm
18:47 43.5 °F /  6.4 °C 35.6 °F /  2.0 °C 29.9in /  1013.1hPa SE 9.8mph /  15.8km/h 9.8mph /  15.8km/h 73% 0in /  0.0mm
18:52 43.9 °F /  6.6 °C 35.8 °F /  2.1 °C 29.9in /  1013.1hPa SE 5.8mph /  9.3km/h 9.8mph /  15.8km/h 73% 0in /  0.0mm
18:57 43.9 °F /  6.6 °C 35.8 °F /  2.1 °C 29.9in /  1013.1hPa SSE 3.8mph /  6.1km/h 8.7mph /  14.0km/h 73% 0in /  0.0mm
19:02 43.9 °F /  6.6 °C 35.8 °F /  2.1 °C 29.9in /  1013.1hPa South 7.2mph /  11.6km/h 10.3mph /  16.6km/h 73% 0in /  0.0mm
19:07 44.1 °F /  6.7 °C 35.4 °F /  1.9 °C 29.9in /  1013.1hPa SSE 3.8mph /  6.1km/h 10.3mph /  16.6km/h 72% 0in /  0.0mm
19:12 44.1 °F /  6.7 °C 35.4 °F /  1.9 °C 29.9in /  1013.1hPa SSE 5.6mph /  9.0km/h 9.8mph /  15.8km/h 72% 0in /  0.0mm
19:17 44.2 °F /  6.8 °C 35.8 °F /  2.1 °C 29.9in /  1013.1hPa SSE 7.2mph /  11.6km/h 8.1mph /  13.0km/h 72% 0in /  0.0mm
19:22 44.2 °F /  6.8 °C 35.8 °F /  2.1 °C 29.9in /  1013.1hPa SSE 5.4mph /  8.7km/h 9.4mph /  15.1km/h 72% 0in /  0.0mm
19:27 44.2 °F /  6.8 °C 35.8 °F /  2.1 °C 29.9in /  1013.1hPa SSE 6.9mph /  11.1km/h 9.4mph /  15.1km/h 72% 0in /  0.0mm
19:32 44.2 °F /  6.8 °C 35.4 °F /  1.9 °C 29.9in /  1013.1hPa SSE 7.6mph /  12.2km/h 11mph /  17.7km/h 71% 0in /  0.0mm
19:37 44.2 °F /  6.8 °C 35.4 °F /  1.9 °C 29.9in /  1013.1hPa South 3.1mph /  5.0km/h 11mph /  17.7km/h 71% 0in /  0.0mm
19:42 44.2 °F /  6.8 °C 35.4 °F /  1.9 °C 29.9in /  1013.1hPa SSE 8.5mph /  13.7km/h 10.7mph /  17.2km/h 71% 0in /  0.0mm
19:47 44.2 °F /  6.8 °C 35.2 °F /  1.8 °C 29.9in /  1013.1hPa SSE 5.8mph /  9.3km/h 10.7mph /  17.2km/h 70% 0in /  0.0mm
19:52 44.2 °F /  6.8 °C 35.2 °F /  1.8 °C 29.9in /  1013.1hPa SSE 5.8mph /  9.3km/h 12.1mph /  19.5km/h 70% 0in /  0.0mm
19:57 44.2 °F /  6.8 °C 35.2 °F /  1.8 °C 29.9in /  1013.1hPa SSE 8.9mph /  14.3km/h 12.1mph /  19.5km/h 70% 0in /  0.0mm
20:02 44.2 °F /  6.8 °C 35.2 °F /  1.8 °C 29.9in /  1013.1hPa SSE 3.1mph /  5.0km/h 12.1mph /  19.5km/h 70% 0in /  0.0mm
20:07 44.2 °F /  6.8 °C 35.2 °F /  1.8 °C 29.9in /  1013.1hPa SSE 5.4mph /  8.7km/h 9.6mph /  15.4km/h 70% 0in /  0.0mm
20:12 44.2 °F /  6.8 °C 35.1 °F /  1.7 °C 29.9in /  1013.1hPa SSE 6.3mph /  10.1km/h 9.2mph /  14.8km/h 70% 0in /  0.0mm
20:17 44.2 °F /  6.8 °C 35.1 °F /  1.7 °C 29.9in /  1013.1hPa SSE 3.8mph /  6.1km/h 9.2mph /  14.8km/h 70% 0in /  0.0mm
20:22 44.1 °F /  6.7 °C 34.9 °F /  1.6 °C 29.9in /  1013.1hPa SSE 7.6mph /  12.2km/h 10.3mph /  16.6km/h 70% 0in /  0.0mm
20:27 44.1 °F /  6.7 °C 34.9 °F /  1.6 °C 29.9in /  1013.1hPa SSE 4.7mph /  7.6km/h 10.3mph /  16.6km/h 70% 0in /  0.0mm
20:32 44.1 °F /  6.7 °C 34.9 °F /  1.6 °C 29.9in /  1013.1hPa South 8.5mph /  13.7km/h 8.5mph /  13.7km/h 70% 0in /  0.0mm
20:37 43.9 °F /  6.6 °C 34.7 °F /  1.5 °C 29.9in /  1013.1hPa SSE 7.2mph /  11.6km/h 8.7mph /  14.0km/h 70% 0in /  0.0mm
20:42 43.9 °F /  6.6 °C 34.7 °F /  1.5 °C 29.9in /  1013.1hPa SE 4.3mph /  6.9km/h 8.7mph /  14.0km/h 70% 0in /  0.0mm
20:47 43.9 °F /  6.6 °C 34.7 °F /  1.5 °C 29.9in /  1013.1hPa SE 5.6mph /  9.0km/h 8.7mph /  14.0km/h 70% 0in /  0.0mm
20:52 43.5 °F /  6.4 °C 34.5 °F /  1.4 °C 29.9in /  1013.1hPa SE 2.9mph /  4.7km/h 8.5mph /  13.7km/h 70% 0in /  0.0mm
20:57 43.5 °F /  6.4 °C 34.3 °F /  1.3 °C 29.9in /  1013.1hPa SSE 6.7mph /  10.8km/h 8.5mph /  13.7km/h 70% 0in /  0.0mm
20:58 43.5 °F /  6.4 °C 34.3 °F /  1.3 °C 29.9in /  1013.1hPa SSE 6.3mph /  10.1km/h 10.5mph /  16.9km/h 70% 0in /  0.0mm
21:03 43.5 °F /  6.4 °C 34.3 °F /  1.3 °C 29.9in /  1013.1hPa South 6.3mph /  10.1km/h 10.5mph /  16.9km/h 70% 0in /  0.0mm
21:08 43.5 °F /  6.4 °C 34.7 °F /  1.5 °C 29.9in /  1013.1hPa SSW 6.5mph /  10.5km/h 9.6mph /  15.4km/h 71% 0in /  0.0mm
21:13 43.3 °F /  6.3 °C 34.5 °F /  1.4 °C 29.9in /  1013.1hPa SSE 5.4mph /  8.7km/h 11mph /  17.7km/h 71% 0in /  0.0mm
21:18 43.3 °F /  6.3 °C 34.5 °F /  1.4 °C 29.9in /  1013.1hPa South 4.3mph /  6.9km/h 11mph /  17.7km/h 71% 0in /  0.0mm
21:23 43.3 °F /  6.3 °C 34.5 °F /  1.4 °C 29.9in /  1013.1hPa SSE 4.3mph /  6.9km/h 11mph /  17.7km/h 71% 0in /  0.0mm
21:28 43.3 °F /  6.3 °C 34.5 °F /  1.4 °C 29.9in /  1013.1hPa SSE 4.9mph /  7.9km/h 10.1mph /  16.3km/h 71% 0in /  0.0mm
21:33 43.2 °F /  6.2 °C 34.3 °F /  1.3 °C 29.9in /  1013.1hPa SSE 9.8mph /  15.8km/h 10.1mph /  16.3km/h 71% 0in /  0.0mm
21:38 43.3 °F /  6.3 °C 34.5 °F /  1.4 °C 29.9in /  1013.1hPa SSE 8.1mph /  13.0km/h 10.1mph /  16.3km/h 71% 0in /  0.0mm
21:43 43.5 °F /  6.4 °C 34.7 °F /  1.5 °C 29.9in /  1013.1hPa SSE 3.8mph /  6.1km/h 11mph /  17.7km/h 71% 0in /  0.0mm
21:48 43.5 °F /  6.4 °C 34.7 °F /  1.5 °C 29.9in /  1013.1hPa SSE 5.8mph /  9.3km/h 11mph /  17.7km/h 71% 0in /  0.0mm
21:53 43.5 °F /  6.4 °C 34.7 °F /  1.5 °C 29.9in /  1013.1hPa SE 5.8mph /  9.3km/h 10.1mph /  16.3km/h 71% 0in /  0.0mm
21:54 43.5 °F /  6.4 °C 34.7 °F /  1.5 °C 29.9in /  1013.1hPa South 5.8mph /  9.3km/h 10.1mph /  16.3km/h 71% 0in /  0.0mm
21:59 43.5 °F /  6.4 °C 34.7 °F /  1.5 °C 29.9in /  1013.1hPa South 2.9mph /  4.7km/h 8.5mph /  13.7km/h 71% 0in /  0.0mm
22:04 43.3 °F /  6.3 °C 34.5 °F /  1.4 °C 29.9in /  1013.1hPa South 3.1mph /  5.0km/h 8.1mph /  13.0km/h 71% 0in /  0.0mm
22:09 43.2 °F /  6.2 °C 34.3 °F /  1.3 °C 29.9in /  1013.1hPa SSE 3.4mph /  5.5km/h 8.1mph /  13.0km/h 71% 0in /  0.0mm
22:14 43.3 °F /  6.3 °C 34.5 °F /  1.4 °C 29.9in /  1013.1hPa SE 6mph /  9.7km/h 7.8mph /  12.6km/h 71% 0in /  0.0mm
22:19 43.2 °F /  6.2 °C 34.3 °F /  1.3 °C 29.9in /  1013.1hPa SSE 2.7mph /  4.3km/h 7.8mph /  12.6km/h 71% 0in /  0.0mm
22:24 43.2 °F /  6.2 °C 34.3 °F /  1.3 °C 29.9in /  1013.1hPa East 2.5mph /  4.0km/h 6mph /  9.7km/h 71% 0in /  0.0mm
22:29 43.2 °F /  6.2 °C 34.3 °F /  1.3 °C 29.9in /  1013.1hPa SSE 4mph /  6.4km/h 6.3mph /  10.1km/h 71% 0in /  0.0mm
22:34 43 °F /  6.1 °C 34.2 °F /  1.2 °C 29.9in /  1013.1hPa South 5.8mph /  9.3km/h 7.4mph /  11.9km/h 71% 0in /  0.0mm
22:39 42.8 °F /  6.0 °C 34 °F /  1.1 °C 29.9in /  1012.1hPa SSE 5.8mph /  9.3km/h 10.1mph /  16.3km/h 71% 0in /  0.0mm
22:44 42.8 °F /  6.0 °C 34 °F /  1.1 °C 29.9in /  1012.1hPa SSE 2.7mph /  4.3km/h 10.1mph /  16.3km/h 71% 0in /  0.0mm
22:49 43 °F /  6.1 °C 34.2 °F /  1.2 °C 29.9in /  1012.1hPa SSE 4mph /  6.4km/h 8.5mph /  13.7km/h 71% 0in /  0.0mm
22:54 43 °F /  6.1 °C 34.2 °F /  1.2 °C 29.9in /  1013.1hPa SSE 8.1mph /  13.0km/h 9.6mph /  15.4km/h 71% 0in /  0.0mm
23:00 43 °F /  6.1 °C 34.2 °F /  1.2 °C 29.9in /  1013.1hPa South 6mph /  9.7km/h 9.8mph /  15.8km/h 71% 0in /  0.0mm
23:05 43 °F /  6.1 °C 34.2 °F /  1.2 °C 29.9in /  1013.1hPa SSE 8.5mph /  13.7km/h 10.3mph /  16.6km/h 71% 0in /  0.0mm
23:10 42.8 °F /  6.0 °C 34 °F /  1.1 °C 29.9in /  1013.1hPa SSE 4.3mph /  6.9km/h 10.3mph /  16.6km/h 71% 0in /  0.0mm
23:15 42.8 °F /  6.0 °C 34 °F /  1.1 °C 29.9in /  1013.1hPa SSE 5.4mph /  8.7km/h 10.3mph /  16.6km/h 71% 0in /  0.0mm
23:20 42.8 °F /  6.0 °C 34 °F /  1.1 °C 29.9in /  1013.1hPa SSE 8.1mph /  13.0km/h 8.5mph /  13.7km/h 71% 0in /  0.0mm
23:25 42.8 °F /  6.0 °C 34 °F /  1.1 °C 29.9in /  1012.1hPa South 3.8mph /  6.1km/h 8.5mph /  13.7km/h 71% 0in /  0.0mm
23:30 42.6 °F /  5.9 °C 33.8 °F /  1.0 °C 29.9in /  1012.1hPa SSE 7.2mph /  11.6km/h 8.5mph /  13.7km/h 71% 0in /  0.0mm
23:35 42.6 °F /  5.9 °C 33.8 °F /  1.0 °C 29.9in /  1012.1hPa SSE 3.1mph /  5.0km/h 8.5mph /  13.7km/h 71% 0in /  0.0mm
23:40 42.6 °F /  5.9 °C 33.8 °F /  1.0 °C 29.9in /  1013.1hPa SSE 8.1mph /  13.0km/h 8.1mph /  13.0km/h 71% 0in /  0.0mm
23:46 42.6 °F /  5.9 °C 33.8 °F /  1.0 °C 29.9in /  1013.1hPa SSE 3.8mph /  6.1km/h 8.1mph /  13.0km/h 71% 0in /  0.0mm
23:51 42.6 °F /  5.9 °C 33.8 °F /  1.0 °C 29.9in /  1013.1hPa South 7.6mph /  12.2km/h 7.6mph /  12.2km/h 71% 0in /  0.0mm
23:54 42.8 °F /  6.0 °C 34 °F /  1.1 °C 29.9in /  1013.1hPa SSE 4.3mph /  6.9km/h 11mph /  17.7km/h 71% 0in /  0.0mm
23:55 42.6 °F /  5.9 °C 33.8 °F /  1.0 °C 29.9in /  1013.1hPa SE 6.3mph /  10.1km/h 11mph /  17.7km/h 71% 0in /  0.0mm
23:58 42.8 °F /  6.0 °C 34 °F /  1.1 °C 29.9in /  1013.1hPa SSE 7.6mph /  12.2km/h 11mph /  17.7km/h 71% 0in /  0.0mm
Données Historique de Météo Turbie

Mise a jour : 26/05/2018 16:02:13
Généré par Cumulus 1.9.4 (1099)